createdAt,value
2022-11-15T00:01:39.942Z,76.07
2022-11-15T00:04:18.380Z,76.15
2022-11-15T00:06:45.507Z,76.46
2022-11-15T00:09:15.603Z,76.71
2022-11-15T00:11:52.825Z,77.13
2022-11-15T00:14:19.609Z,79.09
2022-11-15T00:16:46.751Z,79.68
2022-11-15T00:19:13.595Z,80.14
2022-11-15T00:21:40.482Z,80.69
2022-11-15T00:24:07.574Z,80.98
2022-11-15T00:26:34.907Z,80.37
2022-11-15T00:29:02.043Z,81.31
2022-11-15T00:31:28.846Z,81.49
2022-11-15T00:33:55.729Z,81.44
2022-11-15T00:36:22.600Z,81.49
2022-11-15T00:38:49.337Z,81.42
2022-11-15T00:41:16.361Z,81.53
2022-11-15T00:43:43.398Z,81.26
2022-11-15T00:46:10.949Z,81.46
2022-11-15T00:48:38.517Z,80.87
2022-11-15T00:51:05.433Z,80.24
2022-11-15T00:53:32.495Z,80.00
2022-11-15T00:55:59.783Z,79.90
2022-11-15T00:58:26.807Z,80.61
2022-11-15T01:00:53.741Z,80.86
2022-11-15T01:03:20.737Z,82.22
2022-11-15T01:05:47.680Z,83.30
2022-11-15T01:08:16.359Z,83.64
2022-11-15T01:10:43.619Z,83.72
2022-11-15T01:13:10.720Z,84.32
2022-11-15T01:15:41.198Z,84.65
2022-11-15T01:18:08.843Z,84.21
2022-11-15T01:20:35.782Z,83.25
2022-11-15T01:23:02.692Z,82.42
2022-11-15T01:25:29.809Z,82.47
2022-11-15T01:27:56.670Z,81.75
2022-11-15T01:30:23.447Z,81.24
2022-11-15T01:32:50.688Z,80.62
2022-11-15T01:35:17.759Z,80.32
2022-11-15T01:37:44.611Z,80.47
2022-11-15T01:40:12.093Z,80.56
2022-11-15T01:42:39.482Z,80.85
2022-11-15T01:45:07.500Z,80.55
2022-11-15T01:47:41.942Z,80.57
2022-11-15T01:50:15.789Z,80.65
2022-11-15T01:52:46.970Z,80.73
2022-11-15T01:55:27.131Z,80.89
2022-11-15T01:57:59.465Z,80.88
2022-11-15T02:00:26.649Z,81.54
2022-11-15T02:02:53.434Z,81.87
2022-11-15T02:05:20.813Z,82.40
2022-11-15T02:07:49.164Z,82.53
2022-11-15T02:10:22.283Z,82.52
2022-11-15T02:12:50.476Z,82.66
2022-11-15T02:15:17.687Z,82.78
2022-11-15T02:17:47.366Z,83.38
2022-11-15T02:20:54.771Z,83.31
2022-11-15T02:23:36.603Z,82.83
2022-11-15T02:26:30.096Z,82.61
2022-11-15T02:29:15.534Z,82.69
2022-11-15T02:31:50.127Z,82.80
2022-11-15T02:35:06.691Z,83.43
2022-11-15T02:37:51.685Z,84.90
2022-11-15T02:40:34.111Z,85.03
2022-11-15T02:46:05.540Z,85.18
2022-11-15T02:48:33.676Z,85.20
2022-11-15T02:51:02.353Z,85.81
2022-11-15T02:53:32.384Z,86.13
2022-11-15T02:56:05.090Z,86.82
2022-11-15T02:58:56.322Z,86.15
2022-11-15T03:01:31.814Z,85.79
2022-11-15T03:04:34.048Z,85.59
2022-11-15T03:07:08.795Z,85.64
2022-11-15T03:09:49.892Z,85.72
2022-11-15T03:12:32.992Z,86.69
2022-11-15T03:15:07.369Z,87.31
2022-11-15T03:17:40.170Z,88.15
2022-11-15T03:20:09.070Z,88.71
2022-11-15T03:22:39.460Z,88.87
2022-11-15T03:25:12.172Z,88.50
2022-11-15T03:27:45.076Z,88.71
2022-11-15T03:30:13.403Z,88.50
2022-11-15T03:32:46.082Z,88.63
2022-11-15T03:35:23.332Z,88.88
2022-11-15T03:37:52.503Z,89.12
2022-11-15T03:40:24.759Z,88.44
2022-11-15T03:43:09.642Z,88.26
2022-11-15T03:45:48.059Z,88.27
2022-11-15T03:48:20.282Z,88.41
2022-11-15T03:50:48.592Z,87.89
2022-11-15T03:53:15.803Z,87.78
2022-11-15T03:55:42.595Z,87.58
2022-11-15T03:58:09.564Z,87.46
2022-11-15T04:00:36.836Z,87.52
2022-11-15T04:03:04.009Z,87.38
2022-11-15T04:05:30.884Z,87.13
2022-11-15T04:07:57.931Z,86.88
2022-11-15T04:10:24.858Z,86.69
2022-11-15T04:12:51.596Z,86.29
2022-11-15T04:15:21.198Z,85.71
2022-11-15T04:17:50.344Z,85.59
2022-11-15T04:20:20.771Z,86.11
2022-11-15T04:22:48.165Z,86.21
2022-11-15T04:25:17.438Z,86.45
2022-11-15T04:27:46.282Z,87.14
2022-11-15T04:30:13.397Z,87.24
2022-11-15T04:32:40.183Z,86.76
2022-11-15T04:35:07.452Z,86.73
2022-11-15T04:37:34.744Z,86.82
2022-11-15T04:40:01.602Z,86.86
2022-11-15T04:42:28.287Z,86.70
2022-11-15T04:44:55.402Z,86.80
2022-11-15T04:47:22.213Z,87.13
2022-11-15T04:49:48.969Z,87.41
2022-11-15T04:52:16.142Z,87.21
2022-11-15T04:54:42.916Z,86.93
2022-11-15T04:57:09.689Z,86.67
2022-11-15T04:59:37.119Z,86.81
2022-11-15T05:02:04.069Z,87.08
2022-11-15T05:04:30.844Z,87.03
2022-11-15T05:06:57.949Z,86.83
2022-11-15T05:09:24.694Z,86.78
2022-11-15T05:11:51.631Z,87.21
2022-11-15T05:14:18.778Z,87.10
2022-11-15T05:16:45.692Z,87.21
2022-11-15T05:19:21.690Z,87.12
2022-11-15T05:21:49.556Z,86.97
2022-11-15T05:24:16.533Z,87.65
2022-11-15T05:26:48.614Z,88.32
2022-11-15T05:29:15.690Z,88.04
2022-11-15T05:31:42.592Z,87.89
2022-11-15T05:34:09.605Z,88.16
2022-11-15T05:36:43.038Z,88.34
2022-11-15T05:39:09.923Z,88.04
2022-11-15T05:41:43.173Z,88.22
2022-11-15T05:44:12.798Z,88.70
2022-11-15T05:46:41.162Z,88.83
2022-11-15T05:49:12.803Z,88.74
2022-11-15T05:51:41.001Z,88.99
2022-11-15T05:54:08.001Z,89.16
2022-11-15T05:56:35.476Z,89.10
2022-11-15T05:59:03.461Z,89.42
2022-11-15T06:01:31.392Z,89.11
2022-11-15T06:04:01.521Z,89.01
2022-11-15T06:06:33.749Z,88.61
2022-11-15T06:09:00.934Z,88.78
2022-11-15T06:11:28.363Z,88.70
2022-11-15T06:13:58.233Z,88.81
2022-11-15T06:16:33.939Z,89.00
2022-11-15T06:19:04.152Z,88.82
2022-11-15T06:21:33.801Z,88.65
2022-11-15T06:24:04.574Z,88.64
2022-11-15T06:26:36.945Z,89.32
2022-11-15T06:29:07.080Z,89.25
2022-11-15T06:31:39.566Z,89.57
2022-11-15T06:34:08.566Z,89.46
2022-11-15T06:36:36.963Z,89.90
2022-11-15T06:39:07.000Z,90.02
2022-11-15T06:41:39.776Z,90.31
2022-11-15T06:44:08.962Z,90.33
2022-11-15T06:46:37.482Z,90.01
2022-11-15T06:49:15.090Z,90.13
2022-11-15T06:51:44.922Z,90.07
2022-11-15T06:54:12.248Z,90.31
2022-11-15T06:56:48.163Z,90.48
2022-11-15T06:59:15.238Z,90.76
2022-11-15T07:01:42.783Z,90.54
2022-11-15T07:04:14.371Z,90.40
2022-11-15T07:06:57.932Z,90.23
2022-11-15T07:09:37.321Z,90.39
2022-11-15T07:12:18.917Z,90.74
2022-11-15T07:14:56.922Z,90.19
2022-11-15T07:17:24.530Z,89.70
2022-11-15T07:22:41.031Z,89.91
2022-11-15T07:25:08.815Z,90.07
2022-11-15T07:27:48.699Z,90.67
2022-11-15T07:30:19.333Z,91.12
2022-11-15T07:33:00.645Z,91.46
2022-11-15T07:35:32.858Z,91.15
2022-11-15T07:38:09.850Z,91.31
2022-11-15T07:40:43.137Z,91.44
2022-11-15T07:43:22.638Z,91.23
2022-11-15T07:46:11.152Z,91.00
2022-11-15T07:48:44.404Z,90.58
2022-11-15T07:51:16.877Z,90.08
2022-11-15T07:54:02.511Z,90.07
2022-11-15T07:56:37.324Z,90.06
2022-11-15T07:59:17.582Z,90.01
2022-11-15T08:02:04.573Z,90.00
2022-11-15T08:05:38.663Z,89.56
2022-11-15T08:07:56.133Z,89.20
2022-11-15T08:11:02.854Z,89.56
2022-11-15T08:14:25.396Z,89.50
2022-11-15T08:17:32.225Z,89.18
2022-11-15T08:20:09.325Z,89.13
2022-11-15T08:23:09.722Z,89.44
2022-11-15T08:26:18.554Z,89.22
2022-11-15T08:32:19.075Z,88.88
2022-11-15T08:35:01.249Z,89.21
2022-11-15T08:37:37.086Z,89.98
2022-11-15T08:40:25.128Z,90.28
2022-11-15T08:42:52.822Z,90.02
2022-11-15T08:45:23.839Z,90.12
2022-11-15T08:48:21.246Z,90.08
2022-11-15T08:51:11.772Z,88.96
2022-11-15T08:53:46.903Z,89.29
2022-11-15T08:59:03.657Z,89.22
2022-11-15T09:01:31.331Z,89.56
2022-11-15T09:03:58.579Z,89.47
2022-11-15T09:06:29.972Z,89.08
2022-11-15T09:12:16.168Z,88.04
2022-11-15T09:14:49.120Z,87.25
2022-11-15T09:17:24.438Z,86.95
2022-11-15T09:19:52.494Z,86.51
2022-11-15T09:22:49.161Z,86.79
2022-11-15T09:25:25.000Z,86.13
2022-11-15T09:28:22.576Z,87.06
2022-11-15T09:32:04.316Z,87.96
2022-11-15T09:34:28.336Z,87.38
2022-11-15T09:37:03.440Z,87.44
2022-11-15T09:39:39.720Z,87.99
2022-11-15T09:42:46.939Z,87.89
2022-11-15T09:51:59.760Z,87.08
2022-11-15T09:57:54.791Z,87.25
2022-11-15T10:07:57.894Z,86.63
2022-11-15T11:02:11.801Z,86.65
2022-11-15T11:08:38.454Z,85.48
2022-11-15T11:14:55.739Z,85.42
2022-11-15T11:21:13.491Z,85.32
2022-11-15T11:24:17.686Z,85.61
2022-11-15T11:27:16.695Z,85.37
2022-11-15T11:31:39.155Z,84.50
2022-11-15T11:34:03.584Z,83.65
2022-11-15T11:36:55.844Z,84.34
2022-11-15T11:40:10.257Z,84.35
2022-11-15T11:55:24.585Z,83.09
2022-11-15T11:58:18.601Z,83.19
2022-11-15T12:01:17.856Z,83.35
2022-11-15T12:18:12.091Z,82.64
2022-11-15T12:27:45.644Z,81.18
2022-11-15T12:30:35.082Z,80.84
2022-11-15T12:33:07.407Z,80.40
2022-11-15T12:35:54.530Z,80.04
2022-11-15T12:39:11.174Z,79.32
2022-11-15T12:41:44.521Z,79.99
2022-11-15T12:44:51.681Z,81.96
2022-11-15T12:48:07.115Z,81.11
2022-11-15T12:50:58.120Z,80.85
2022-11-15T12:53:43.038Z,79.56
2022-11-15T12:56:25.228Z,78.02
2022-11-15T13:01:57.653Z,77.55
2022-11-15T13:04:42.691Z,77.84
2022-11-15T13:07:42.439Z,78.66
2022-11-15T13:10:57.766Z,77.95
2022-11-15T13:14:03.803Z,77.08
2022-11-15T13:16:34.503Z,77.45
2022-11-15T13:19:14.972Z,76.83
2022-11-15T13:25:06.141Z,77.74
2022-11-15T13:28:28.043Z,77.65
2022-11-15T13:30:59.087Z,79.08
2022-11-15T13:33:41.609Z,79.09
2022-11-15T13:36:28.770Z,79.44
2022-11-15T13:39:36.407Z,79.82
2022-11-15T13:42:34.284Z,79.92
2022-11-15T13:45:17.897Z,79.76
2022-11-15T13:47:47.374Z,79.61
2022-11-15T13:50:44.438Z,79.76
2022-11-15T13:53:31.483Z,79.93
2022-11-15T13:56:31.820Z,80.45
2022-11-15T14:02:22.927Z,80.52
2022-11-15T14:05:17.641Z,80.62
2022-11-15T14:08:37.988Z,81.09
2022-11-15T14:14:28.845Z,82.33
2022-11-15T14:17:02.135Z,82.14
2022-11-15T14:19:35.561Z,82.09
2022-11-15T14:22:21.721Z,81.56
2022-11-15T14:25:21.120Z,80.99
2022-11-15T14:28:29.114Z,81.03
2022-11-15T14:31:28.278Z,80.98
2022-11-15T14:34:00.917Z,81.07
2022-11-15T14:36:39.019Z,81.06
2022-11-15T14:39:36.134Z,81.04
2022-11-15T14:42:10.959Z,81.09
2022-11-15T14:45:19.067Z,80.94
2022-11-15T14:48:03.538Z,81.58
2022-11-15T14:53:47.087Z,81.82
2022-11-15T14:56:21.802Z,82.28
2022-11-15T14:58:51.364Z,82.42
2022-11-15T15:01:33.165Z,82.34
2022-11-15T15:04:00.528Z,83.14
2022-11-15T15:06:29.953Z,83.00
2022-11-15T15:09:02.255Z,82.77
2022-11-15T15:11:41.083Z,83.04
2022-11-15T15:14:13.941Z,83.31
2022-11-15T15:16:46.732Z,83.63
2022-11-15T15:19:44.838Z,83.66
2022-11-15T15:25:48.491Z,83.84
2022-11-15T15:28:32.968Z,83.54
2022-11-15T15:31:08.087Z,83.56
2022-11-15T15:33:39.704Z,83.35
2022-11-15T15:36:21.247Z,83.19
2022-11-15T15:38:57.362Z,83.33
2022-11-15T15:42:45.930Z,83.17
2022-11-15T15:47:15.978Z,83.22
2022-11-15T15:49:56.471Z,82.58
2022-11-15T15:52:54.077Z,82.87
2022-11-15T15:55:36.202Z,82.95
2022-11-15T15:58:12.843Z,82.91
2022-11-15T16:00:49.109Z,83.36
2022-11-15T16:03:21.243Z,82.81
2022-11-15T16:05:55.842Z,82.41
2022-11-15T16:09:00.381Z,82.11
2022-11-15T16:11:42.806Z,82.21
2022-11-15T16:18:12.093Z,82.05
2022-11-15T16:20:54.697Z,83.42
2022-11-15T16:23:46.496Z,82.83
2022-11-15T16:29:31.520Z,82.17
2022-11-15T16:32:18.132Z,81.84
2022-11-15T16:37:50.519Z,83.03
2022-11-15T16:40:37.757Z,83.63
2022-11-15T16:46:16.613Z,82.49
2022-11-15T16:55:02.490Z,82.04
2022-11-15T16:57:30.488Z,82.28
2022-11-15T16:59:59.719Z,83.01
2022-11-15T17:03:09.794Z,83.17
2022-11-15T17:06:09.687Z,82.66
2022-11-15T17:09:05.596Z,84.59
2022-11-15T17:12:00.198Z,84.19
2022-11-15T17:14:29.060Z,83.20
2022-11-15T17:17:17.104Z,82.97
2022-11-15T17:23:16.945Z,82.84
2022-11-15T17:26:24.117Z,83.11
2022-11-15T17:32:05.672Z,82.45
2022-11-15T17:34:56.016Z,82.31
2022-11-15T17:37:30.043Z,82.40
2022-11-15T17:40:19.550Z,82.75
2022-11-15T17:43:19.600Z,82.48
2022-11-15T17:45:49.559Z,82.78
2022-11-15T17:48:24.206Z,82.23
2022-11-15T17:51:12.359Z,82.10
2022-11-15T17:53:59.603Z,82.28
2022-11-15T17:56:36.967Z,82.21
2022-11-15T17:59:07.753Z,81.75
2022-11-15T18:01:40.896Z,82.01
2022-11-15T18:04:40.324Z,81.78
2022-11-15T18:07:40.856Z,81.65
2022-11-15T18:10:18.087Z,82.36
2022-11-15T18:12:54.918Z,82.20
2022-11-15T18:15:22.358Z,82.16
2022-11-15T18:18:00.994Z,81.94
2022-11-15T18:20:42.642Z,81.31
2022-11-15T18:23:09.615Z,81.88
2022-11-15T18:25:39.606Z,82.27
2022-11-15T18:28:18.165Z,81.89
2022-11-15T18:30:53.656Z,82.15
2022-11-15T18:33:36.951Z,81.71
2022-11-15T18:36:16.337Z,81.67
2022-11-15T18:38:49.548Z,81.35
2022-11-15T18:41:20.613Z,80.95
2022-11-15T18:43:53.972Z,80.78
2022-11-15T18:46:27.886Z,80.95
2022-11-15T18:48:58.199Z,80.87
2022-11-15T18:51:38.925Z,80.23
2022-11-15T18:54:18.480Z,80.45
2022-11-15T18:57:08.157Z,80.78
2022-11-15T18:59:40.659Z,80.88
2022-11-15T19:02:28.284Z,81.38
2022-11-15T19:05:44.043Z,82.26
2022-11-15T19:08:02.240Z,82.66
2022-11-15T19:11:04.573Z,82.94
2022-11-15T19:13:34.987Z,81.91
2022-11-15T19:16:08.453Z,82.34
2022-11-15T19:21:48.848Z,81.98
2022-11-15T19:24:32.173Z,82.65
2022-11-15T19:27:22.767Z,83.48
2022-11-15T19:30:01.965Z,85.05
2022-11-15T19:32:44.807Z,85.98
2022-11-15T19:35:28.689Z,86.08
2022-11-15T19:38:16.337Z,86.30
2022-11-15T19:43:56.248Z,84.89
2022-11-15T19:46:25.641Z,84.49
2022-11-15T19:48:58.251Z,84.62
2022-11-15T19:52:02.583Z,84.35
2022-11-15T19:54:42.652Z,84.22
2022-11-15T19:57:59.653Z,83.99
2022-11-15T20:00:20.522Z,83.44
2022-11-15T20:02:56.301Z,83.17
2022-11-15T20:05:30.262Z,82.44
2022-11-15T20:08:04.733Z,82.18
2022-11-15T20:10:42.448Z,82.41
2022-11-15T20:13:59.597Z,83.05
2022-11-15T20:17:00.373Z,82.72
2022-11-15T20:19:47.211Z,83.14
2022-11-15T20:25:43.397Z,84.04
2022-11-15T20:28:24.984Z,84.67
2022-11-15T20:31:11.691Z,84.85
2022-11-15T20:33:39.117Z,84.50
2022-11-15T20:36:22.377Z,85.32
2022-11-15T20:39:03.475Z,85.97
2022-11-15T20:41:30.594Z,85.59
2022-11-15T20:44:01.275Z,85.38
2022-11-15T20:46:41.232Z,85.34
2022-11-15T20:49:37.611Z,86.12
2022-11-15T20:55:07.533Z,85.82
2022-11-15T21:03:43.193Z,84.95
2022-11-15T21:06:10.871Z,83.86
2022-11-15T21:08:37.740Z,83.84
2022-11-15T21:11:05.219Z,83.42
2022-11-15T21:13:32.251Z,83.54
2022-11-15T21:15:59.247Z,83.29
2022-11-15T21:18:26.835Z,83.46
2022-11-15T21:21:01.887Z,83.40
2022-11-15T21:23:29.376Z,83.10
2022-11-15T21:25:56.761Z,83.85
2022-11-15T21:28:24.377Z,84.35
2022-11-15T21:31:01.137Z,84.31
2022-11-15T21:33:28.704Z,83.85
2022-11-15T21:36:04.583Z,83.92
2022-11-15T21:38:32.348Z,84.09
2022-11-15T21:41:17.659Z,83.86
2022-11-15T21:43:57.959Z,83.33
2022-11-15T21:46:31.558Z,83.30
2022-11-15T21:49:01.858Z,82.55
2022-11-15T21:51:35.768Z,82.71
2022-11-15T21:54:07.320Z,83.22
2022-11-15T21:56:37.223Z,83.28
2022-11-15T22:01:51.404Z,82.99
2022-11-15T22:04:19.131Z,82.72
2022-11-15T22:06:53.561Z,82.40
2022-11-15T22:09:21.597Z,82.27
2022-11-15T22:11:51.051Z,82.20
2022-11-15T22:14:22.935Z,82.25
2022-11-15T22:16:53.094Z,81.28
2022-11-15T22:22:04.558Z,81.81
2022-11-15T22:24:39.582Z,82.04
2022-11-15T22:29:56.366Z,84.05
2022-11-15T22:33:04.559Z,83.90
2022-11-15T22:35:50.060Z,83.88
2022-11-15T22:38:20.895Z,83.36
2022-11-15T22:40:56.104Z,83.46
2022-11-15T22:43:37.893Z,82.69
2022-11-15T22:46:12.858Z,82.35
2022-11-15T22:51:29.448Z,82.57
2022-11-15T22:54:04.000Z,82.42
2022-11-15T22:56:31.126Z,82.46
2022-11-15T22:59:01.001Z,82.70
2022-11-15T23:01:30.249Z,82.64
2022-11-15T23:04:00.779Z,83.10
2022-11-15T23:06:31.377Z,84.13
2022-11-15T23:09:00.749Z,84.64
2022-11-15T23:11:28.123Z,86.01
2022-11-15T23:13:55.656Z,86.30
2022-11-15T23:16:22.922Z,86.83
2022-11-15T23:18:58.349Z,86.88
2022-11-15T23:21:34.513Z,87.36
2022-11-15T23:24:03.972Z,88.34
2022-11-15T23:29:19.896Z,88.26
2022-11-15T23:32:01.546Z,88.49
2022-11-15T23:34:45.046Z,88.28
2022-11-15T23:37:16.007Z,88.69
2022-11-15T23:39:46.021Z,89.01
2022-11-15T23:45:09.677Z,89.97
2022-11-15T23:47:47.998Z,89.52
2022-11-15T23:50:18.929Z,89.30
2022-11-15T23:52:49.330Z,89.35
2022-11-15T23:55:16.959Z,88.34
2022-11-15T23:57:48.463Z,88.46
